sensor_id;sensor_type;location;lat;lon;timestamp;P1;durP1;ratioP1;P2;durP2;ratioP2
9722;SDS011;4900;49.306;8.500;2022-11-15T00:00:05;10.57;;;7.53;;
9722;SDS011;4900;49.306;8.500;2022-11-15T00:03:08;8.43;;;6.80;;
9722;SDS011;4900;49.306;8.500;2022-11-15T00:06:11;7.87;;;6.60;;
9722;SDS011;4900;49.306;8.500;2022-11-15T00:09:15;9.40;;;6.80;;
9722;SDS011;4900;49.306;8.500;2022-11-15T00:12:18;9.83;;;6.80;;
9722;SDS011;4900;49.306;8.500;2022-11-15T00:15:20;8.73;;;6.87;;
9722;SDS011;4900;49.306;8.500;2022-11-15T00:18:24;8.47;;;6.33;;
9722;SDS011;4900;49.306;8.500;2022-11-15T00:21:27;11.83;;;6.30;;
9722;SDS011;4900;49.306;8.500;2022-11-15T00:24:29;8.13;;;6.50;;
9722;SDS011;4900;49.306;8.500;2022-11-15T00:27:32;8.03;;;6.20;;
9722;SDS011;4900;49.306;8.500;2022-11-15T00:30:35;8.83;;;6.13;;
9722;SDS011;4900;49.306;8.500;2022-11-15T00:33:38;10.27;;;6.40;;
9722;SDS011;4900;49.306;8.500;2022-11-15T00:36:41;9.03;;;5.97;;
9722;SDS011;4900;49.306;8.500;2022-11-15T00:39:44;7.97;;;5.93;;
9722;SDS011;4900;49.306;8.500;2022-11-15T00:42:47;8.20;;;6.20;;
9722;SDS011;4900;49.306;8.500;2022-11-15T00:45:50;7.63;;;6.20;;
9722;SDS011;4900;49.306;8.500;2022-11-15T00:48:53;8.07;;;6.47;;
9722;SDS011;4900;49.306;8.500;2022-11-15T00:51:56;8.07;;;6.10;;
9722;SDS011;4900;49.306;8.500;2022-11-15T00:54:58;6.77;;;5.93;;
9722;SDS011;4900;49.306;8.500;2022-11-15T00:58:01;6.97;;;5.90;;
9722;SDS011;4900;49.306;8.500;2022-11-15T01:01:05;8.80;;;6.43;;
9722;SDS011;4900;49.306;8.500;2022-11-15T01:04:12;7.03;;;5.83;;
9722;SDS011;4900;49.306;8.500;2022-11-15T01:07:16;7.37;;;6.17;;
9722;SDS011;4900;49.306;8.500;2022-11-15T01:10:19;8.17;;;5.80;;
9722;SDS011;4900;49.306;8.500;2022-11-15T01:13:23;9.50;;;6.17;;
9722;SDS011;4900;49.306;8.500;2022-11-15T01:16:25;6.70;;;5.60;;
9722;SDS011;4900;49.306;8.500;2022-11-15T01:19:29;8.03;;;5.50;;
9722;SDS011;4900;49.306;8.500;2022-11-15T01:22:32;10.00;;;6.70;;
9722;SDS011;4900;49.306;8.500;2022-11-15T01:25:35;8.07;;;6.03;;
9722;SDS011;4900;49.306;8.500;2022-11-15T01:28:39;7.17;;;5.83;;
9722;SDS011;4900;49.306;8.500;2022-11-15T01:31:43;8.63;;;6.20;;
9722;SDS011;4900;49.306;8.500;2022-11-15T01:34:46;8.03;;;5.60;;
9722;SDS011;4900;49.306;8.500;2022-11-15T01:37:49;9.20;;;6.37;;
9722;SDS011;4900;49.306;8.500;2022-11-15T01:40:51;7.03;;;5.90;;
9722;SDS011;4900;49.306;8.500;2022-11-15T01:43:55;7.90;;;5.70;;
9722;SDS011;4900;49.306;8.500;2022-11-15T01:47:11;8.80;;;6.17;;
9722;SDS011;4900;49.306;8.500;2022-11-15T01:50:17;6.20;;;5.33;;
9722;SDS011;4900;49.306;8.500;2022-11-15T01:53:23;6.43;;;5.67;;
9722;SDS011;4900;49.306;8.500;2022-11-15T01:56:28;8.33;;;5.90;;
9722;SDS011;4900;49.306;8.500;2022-11-15T01:59:36;8.03;;;6.23;;
9722;SDS011;4900;49.306;8.500;2022-11-15T02:02:41;7.20;;;6.10;;
9722;SDS011;4900;49.306;8.500;2022-11-15T02:05:44;7.53;;;6.00;;
9722;SDS011;4900;49.306;8.500;2022-11-15T02:08:47;6.97;;;5.80;;
9722;SDS011;4900;49.306;8.500;2022-11-15T02:11:51;9.10;;;6.53;;
9722;SDS011;4900;49.306;8.500;2022-11-15T02:14:57;8.50;;;6.60;;
9722;SDS011;4900;49.306;8.500;2022-11-15T02:18:18;7.90;;;6.43;;
9722;SDS011;4900;49.306;8.500;2022-11-15T02:24:45;8.60;;;6.20;;
9722;SDS011;4900;49.306;8.500;2022-11-15T02:31:31;8.30;;;5.97;;
9722;SDS011;4900;49.306;8.500;2022-11-15T02:38:07;6.83;;;5.57;;
9722;SDS011;4900;49.306;8.500;2022-11-15T02:41:24;6.70;;;5.23;;
9722;SDS011;4900;49.306;8.500;2022-11-15T02:44:38;7.03;;;5.50;;
9722;SDS011;4900;49.306;8.500;2022-11-15T02:47:46;7.93;;;5.60;;
9722;SDS011;4900;49.306;8.500;2022-11-15T02:50:52;6.63;;;5.90;;
9722;SDS011;4900;49.306;8.500;2022-11-15T02:53:56;7.10;;;5.57;;
9722;SDS011;4900;49.306;8.500;2022-11-15T02:57:03;6.67;;;5.33;;
9722;SDS011;4900;49.306;8.500;2022-11-15T03:00:13;6.80;;;5.57;;
9722;SDS011;4900;49.306;8.500;2022-11-15T03:06:53;6.07;;;5.20;;
9722;SDS011;4900;49.306;8.500;2022-11-15T03:16:38;7.80;;;5.33;;
9722;SDS011;4900;49.306;8.500;2022-11-15T03:19:47;6.00;;;5.00;;
9722;SDS011;4900;49.306;8.500;2022-11-15T03:22:55;5.63;;;4.73;;
9722;SDS011;4900;49.306;8.500;2022-11-15T03:26:03;6.47;;;5.73;;
9722;SDS011;4900;49.306;8.500;2022-11-15T03:29:12;9.20;;;5.70;;
9722;SDS011;4900;49.306;8.500;2022-11-15T03:32:19;7.10;;;5.83;;
9722;SDS011;4900;49.306;8.500;2022-11-15T03:35:29;6.77;;;5.60;;
9722;SDS011;4900;49.306;8.500;2022-11-15T03:38:36;9.17;;;5.87;;
9722;SDS011;4900;49.306;8.500;2022-11-15T03:41:55;7.57;;;5.97;;
9722;SDS011;4900;49.306;8.500;2022-11-15T03:45:10;7.33;;;5.80;;
9722;SDS011;4900;49.306;8.500;2022-11-15T03:48:25;7.53;;;5.70;;
9722;SDS011;4900;49.306;8.500;2022-11-15T03:51:32;8.03;;;5.67;;
9722;SDS011;4900;49.306;8.500;2022-11-15T03:54:36;6.77;;;5.40;;
9722;SDS011;4900;49.306;8.500;2022-11-15T03:57:39;7.50;;;5.33;;
9722;SDS011;4900;49.306;8.500;2022-11-15T04:00:42;8.87;;;5.07;;
9722;SDS011;4900;49.306;8.500;2022-11-15T04:03:45;7.00;;;5.00;;
9722;SDS011;4900;49.306;8.500;2022-11-15T04:06:48;5.83;;;4.57;;
9722;SDS011;4900;49.306;8.500;2022-11-15T04:09:51;6.73;;;5.13;;
9722;SDS011;4900;49.306;8.500;2022-11-15T04:13:06;5.67;;;5.07;;
9722;SDS011;4900;49.306;8.500;2022-11-15T04:16:09;6.10;;;5.00;;
9722;SDS011;4900;49.306;8.500;2022-11-15T04:19:12;7.13;;;4.80;;
9722;SDS011;4900;49.306;8.500;2022-11-15T04:22:34;6.33;;;4.93;;
9722;SDS011;4900;49.306;8.500;2022-11-15T04:26:08;5.73;;;5.10;;
9722;SDS011;4900;49.306;8.500;2022-11-15T04:29:12;5.83;;;4.67;;
9722;SDS011;4900;49.306;8.500;2022-11-15T04:32:34;5.80;;;4.73;;
9722;SDS011;4900;49.306;8.500;2022-11-15T04:35:37;6.73;;;5.10;;
9722;SDS011;4900;49.306;8.500;2022-11-15T04:38:40;6.27;;;4.80;;
9722;SDS011;4900;49.306;8.500;2022-11-15T04:41:43;5.43;;;4.63;;
9722;SDS011;4900;49.306;8.500;2022-11-15T04:44:47;6.20;;;4.77;;
9722;SDS011;4900;49.306;8.500;2022-11-15T04:47:49;5.73;;;4.80;;
9722;SDS011;4900;49.306;8.500;2022-11-15T04:50:52;5.27;;;4.70;;
9722;SDS011;4900;49.306;8.500;2022-11-15T04:53:56;7.47;;;4.93;;
9722;SDS011;4900;49.306;8.500;2022-11-15T04:56:59;6.30;;;4.67;;
9722;SDS011;4900;49.306;8.500;2022-11-15T05:00:03;6.63;;;4.60;;
9722;SDS011;4900;49.306;8.500;2022-11-15T05:03:08;6.60;;;4.60;;
9722;SDS011;4900;49.306;8.500;2022-11-15T05:06:31;5.80;;;4.70;;
9722;SDS011;4900;49.306;8.500;2022-11-15T05:09:34;6.13;;;4.90;;
9722;SDS011;4900;49.306;8.500;2022-11-15T05:12:37;6.33;;;4.70;;
9722;SDS011;4900;49.306;8.500;2022-11-15T05:15:40;7.87;;;5.10;;
9722;SDS011;4900;49.306;8.500;2022-11-15T05:18:43;6.27;;;4.90;;
9722;SDS011;4900;49.306;8.500;2022-11-15T05:21:47;5.90;;;4.60;;
9722;SDS011;4900;49.306;8.500;2022-11-15T05:24:50;8.13;;;4.73;;
9722;SDS011;4900;49.306;8.500;2022-11-15T05:27:53;6.57;;;4.50;;
9722;SDS011;4900;49.306;8.500;2022-11-15T05:31:03;5.63;;;4.50;;
9722;SDS011;4900;49.306;8.500;2022-11-15T05:34:07;6.83;;;4.27;;
9722;SDS011;4900;49.306;8.500;2022-11-15T05:37:10;6.17;;;4.60;;
9722;SDS011;4900;49.306;8.500;2022-11-15T05:40:13;6.60;;;4.60;;
9722;SDS011;4900;49.306;8.500;2022-11-15T05:43:17;6.33;;;4.40;;
9722;SDS011;4900;49.306;8.500;2022-11-15T05:46:20;6.63;;;4.37;;
9722;SDS011;4900;49.306;8.500;2022-11-15T05:49:24;5.77;;;4.20;;
9722;SDS011;4900;49.306;8.500;2022-11-15T05:52:33;5.33;;;4.40;;
9722;SDS011;4900;49.306;8.500;2022-11-15T05:55:39;5.60;;;4.07;;
9722;SDS011;4900;49.306;8.500;2022-11-15T05:58:43;5.47;;;4.27;;
9722;SDS011;4900;49.306;8.500;2022-11-15T06:01:48;7.87;;;4.87;;
9722;SDS011;4900;49.306;8.500;2022-11-15T06:04:51;6.67;;;4.67;;
9722;SDS011;4900;49.306;8.500;2022-11-15T06:07:57;7.33;;;5.03;;
9722;SDS011;4900;49.306;8.500;2022-11-15T06:11:05;5.30;;;4.63;;
9722;SDS011;4900;49.306;8.500;2022-11-15T06:14:08;5.87;;;4.57;;
9722;SDS011;4900;49.306;8.500;2022-11-15T06:17:11;7.00;;;5.27;;
9722;SDS011;4900;49.306;8.500;2022-11-15T06:20:14;6.33;;;4.90;;
9722;SDS011;4900;49.306;8.500;2022-11-15T06:23:17;5.60;;;4.67;;
9722;SDS011;4900;49.306;8.500;2022-11-15T06:26:20;6.30;;;4.93;;
9722;SDS011;4900;49.306;8.500;2022-11-15T06:29:23;7.00;;;5.07;;
9722;SDS011;4900;49.306;8.500;2022-11-15T06:32:26;5.73;;;4.63;;
9722;SDS011;4900;49.306;8.500;2022-11-15T06:35:33;6.83;;;5.00;;
9722;SDS011;4900;49.306;8.500;2022-11-15T06:38:37;9.07;;;5.20;;
9722;SDS011;4900;49.306;8.500;2022-11-15T06:41:40;6.23;;;5.17;;
9722;SDS011;4900;49.306;8.500;2022-11-15T06:44:42;6.40;;;5.33;;
9722;SDS011;4900;49.306;8.500;2022-11-15T06:47:46;7.57;;;5.83;;
9722;SDS011;4900;49.306;8.500;2022-11-15T06:50:50;9.17;;;7.13;;
9722;SDS011;4900;49.306;8.500;2022-11-15T06:53:54;10.33;;;8.10;;
9722;SDS011;4900;49.306;8.500;2022-11-15T06:56:57;10.10;;;7.70;;
9722;SDS011;4900;49.306;8.500;2022-11-15T07:00:00;8.30;;;6.37;;
9722;SDS011;4900;49.306;8.500;2022-11-15T07:03:04;8.70;;;6.27;;
9722;SDS011;4900;49.306;8.500;2022-11-15T07:06:08;10.30;;;4.90;;
9722;SDS011;4900;49.306;8.500;2022-11-15T07:09:11;7.77;;;5.20;;
9722;SDS011;4900;49.306;8.500;2022-11-15T07:12:14;6.93;;;5.30;;
9722;SDS011;4900;49.306;8.500;2022-11-15T07:15:18;9.80;;;6.53;;
9722;SDS011;4900;49.306;8.500;2022-11-15T07:18:22;8.60;;;5.90;;
9722;SDS011;4900;49.306;8.500;2022-11-15T07:21:25;11.27;;;5.30;;
9722;SDS011;4900;49.306;8.500;2022-11-15T07:24:28;6.70;;;4.87;;
9722;SDS011;4900;49.306;8.500;2022-11-15T07:27:31;6.63;;;4.70;;
9722;SDS011;4900;49.306;8.500;2022-11-15T07:30:35;6.27;;;4.53;;
9722;SDS011;4900;49.306;8.500;2022-11-15T07:33:38;6.20;;;4.50;;
9722;SDS011;4900;49.306;8.500;2022-11-15T07:36:42;5.70;;;4.30;;
9722;SDS011;4900;49.306;8.500;2022-11-15T07:39:45;9.63;;;4.70;;
9722;SDS011;4900;49.306;8.500;2022-11-15T07:42:48;8.20;;;5.03;;
9722;SDS011;4900;49.306;8.500;2022-11-15T07:45:58;9.43;;;5.40;;
9722;SDS011;4900;49.306;8.500;2022-11-15T07:49:07;6.73;;;4.97;;
9722;SDS011;4900;49.306;8.500;2022-11-15T07:52:10;7.90;;;4.67;;
9722;SDS011;4900;49.306;8.500;2022-11-15T07:55:13;6.83;;;4.67;;
9722;SDS011;4900;49.306;8.500;2022-11-15T07:58:17;5.77;;;4.50;;
9722;SDS011;4900;49.306;8.500;2022-11-15T08:01:20;6.13;;;4.50;;
9722;SDS011;4900;49.306;8.500;2022-11-15T08:04:23;7.40;;;4.80;;
9722;SDS011;4900;49.306;8.500;2022-11-15T08:07:28;6.23;;;4.33;;
9722;SDS011;4900;49.306;8.500;2022-11-15T08:10:32;5.63;;;4.50;;
9722;SDS011;4900;49.306;8.500;2022-11-15T08:13:36;6.40;;;5.20;;
9722;SDS011;4900;49.306;8.500;2022-11-15T08:16:39;8.07;;;5.17;;
9722;SDS011;4900;49.306;8.500;2022-11-15T08:19:42;6.17;;;4.77;;
9722;SDS011;4900;49.306;8.500;2022-11-15T08:22:45;5.60;;;4.60;;
9722;SDS011;4900;49.306;8.500;2022-11-15T08:25:48;7.17;;;4.57;;
9722;SDS011;4900;49.306;8.500;2022-11-15T08:28:51;6.20;;;4.70;;
9722;SDS011;4900;49.306;8.500;2022-11-15T08:31:54;6.30;;;4.43;;
9722;SDS011;4900;49.306;8.500;2022-11-15T08:34:58;6.47;;;4.63;;
9722;SDS011;4900;49.306;8.500;2022-11-15T08:38:01;5.77;;;4.50;;
9722;SDS011;4900;49.306;8.500;2022-11-15T08:41:04;5.80;;;4.20;;
9722;SDS011;4900;49.306;8.500;2022-11-15T08:44:08;6.60;;;4.30;;
9722;SDS011;4900;49.306;8.500;2022-11-15T08:47:11;5.03;;;4.13;;
9722;SDS011;4900;49.306;8.500;2022-11-15T08:50:15;9.57;;;5.40;;
9722;SDS011;4900;49.306;8.500;2022-11-15T08:53:18;7.33;;;5.00;;
9722;SDS011;4900;49.306;8.500;2022-11-15T08:56:21;5.17;;;4.10;;
9722;SDS011;4900;49.306;8.500;2022-11-15T08:59:24;5.60;;;4.67;;
9722;SDS011;4900;49.306;8.500;2022-11-15T09:02:26;6.23;;;4.97;;
9722;SDS011;4900;49.306;8.500;2022-11-15T09:05:29;7.10;;;5.03;;
9722;SDS011;4900;49.306;8.500;2022-11-15T09:08:33;6.13;;;4.80;;
9722;SDS011;4900;49.306;8.500;2022-11-15T09:11:36;6.37;;;4.47;;
9722;SDS011;4900;49.306;8.500;2022-11-15T09:14:39;6.20;;;4.77;;
9722;SDS011;4900;49.306;8.500;2022-11-15T09:17:42;6.72;;;4.40;;
9722;SDS011;4900;49.306;8.500;2022-11-15T09:20:46;7.63;;;4.20;;
9722;SDS011;4900;49.306;8.500;2022-11-15T09:23:52;6.03;;;4.35;;
9722;SDS011;4900;49.306;8.500;2022-11-15T09:26:55;4.75;;;4.13;;
9722;SDS011;4900;49.306;8.500;2022-11-15T09:29:58;6.22;;;4.47;;
9722;SDS011;4900;49.306;8.500;2022-11-15T09:33:08;5.55;;;4.55;;
9722;SDS011;4900;49.306;8.500;2022-11-15T09:36:12;5.90;;;4.22;;
9722;SDS011;4900;49.306;8.500;2022-11-15T09:39:15;6.68;;;5.00;;
9722;SDS011;4900;49.306;8.500;2022-11-15T09:42:43;6.50;;;5.30;;
9722;SDS011;4900;49.306;8.500;2022-11-15T09:46:11;6.05;;;4.53;;
9722;SDS011;4900;49.306;8.500;2022-11-15T09:49:19;5.05;;;4.22;;
9722;SDS011;4900;49.306;8.500;2022-11-15T09:52:24;6.20;;;4.70;;
9722;SDS011;4900;49.306;8.500;2022-11-15T09:55:33;6.25;;;4.55;;
9722;SDS011;4900;49.306;8.500;2022-11-15T10:05:50;6.55;;;4.85;;
9722;SDS011;4900;49.306;8.500;2022-11-15T10:09:16;5.28;;;4.13;;
9722;SDS011;4900;49.306;8.500;2022-11-15T10:12:26;6.32;;;4.47;;
9722;SDS011;4900;49.306;8.500;2022-11-15T10:15:30;8.05;;;5.30;;
9722;SDS011;4900;49.306;8.500;2022-11-15T10:28:22;5.05;;;4.30;;
9722;SDS011;4900;49.306;8.500;2022-11-15T10:31:29;4.80;;;4.30;;
9722;SDS011;4900;49.306;8.500;2022-11-15T10:34:35;6.10;;;4.32;;
9722;SDS011;4900;49.306;8.500;2022-11-15T10:37:38;4.80;;;4.03;;
9722;SDS011;4900;49.306;8.500;2022-11-15T10:40:42;5.00;;;4.13;;
9722;SDS011;4900;49.306;8.500;2022-11-15T10:44:01;4.85;;;3.85;;
9722;SDS011;4900;49.306;8.500;2022-11-15T10:47:29;6.07;;;4.43;;
9722;SDS011;4900;49.306;8.500;2022-11-15T10:50:34;5.38;;;4.53;;
9722;SDS011;4900;49.306;8.500;2022-11-15T10:53:40;6.63;;;4.30;;
9722;SDS011;4900;49.306;8.500;2022-11-15T10:56:54;5.57;;;4.13;;
9722;SDS011;4900;49.306;8.500;2022-11-15T11:00:02;5.68;;;4.75;;
9722;SDS011;4900;49.306;8.500;2022-11-15T11:03:33;4.45;;;4.05;;
9722;SDS011;4900;49.306;8.500;2022-11-15T11:13:14;6.40;;;4.55;;
9722;SDS011;4900;49.306;8.500;2022-11-15T11:16:49;5.03;;;4.15;;
9722;SDS011;4900;49.306;8.500;2022-11-15T11:19:59;6.43;;;4.35;;
9722;SDS011;4900;49.306;8.500;2022-11-15T11:23:38;4.85;;;4.18;;
9722;SDS011;4900;49.306;8.500;2022-11-15T11:31:11;4.35;;;3.95;;
9722;SDS011;4900;49.306;8.500;2022-11-15T11:37:47;6.10;;;4.60;;
9722;SDS011;4900;49.306;8.500;2022-11-15T11:47:21;6.80;;;4.88;;
9722;SDS011;4900;49.306;8.500;2022-11-15T11:50:27;7.20;;;5.25;;
9722;SDS011;4900;49.306;8.500;2022-11-15T11:53:31;6.22;;;4.55;;
9722;SDS011;4900;49.306;8.500;2022-11-15T11:56:43;6.45;;;4.50;;
9722;SDS011;4900;49.306;8.500;2022-11-15T11:59:48;7.05;;;4.60;;
9722;SDS011;4900;49.306;8.500;2022-11-15T12:13:12;5.57;;;4.30;;
9722;SDS011;4900;49.306;8.500;2022-11-15T12:16:23;5.25;;;4.28;;
9722;SDS011;4900;49.306;8.500;2022-11-15T12:19:30;6.22;;;4.43;;
9722;SDS011;4900;49.306;8.500;2022-11-15T12:25:59;6.97;;;4.18;;
9722;SDS011;4900;49.306;8.500;2022-11-15T12:32:54;6.47;;;3.90;;
9722;SDS011;4900;49.306;8.500;2022-11-15T12:36:03;3.95;;;3.45;;
9722;SDS011;4900;49.306;8.500;2022-11-15T12:39:08;4.75;;;3.70;;
9722;SDS011;4900;49.306;8.500;2022-11-15T12:54:50;5.00;;;3.30;;
9722;SDS011;4900;49.306;8.500;2022-11-15T12:57:55;5.05;;;3.50;;
9722;SDS011;4900;49.306;8.500;2022-11-15T13:02:00;4.55;;;3.80;;
9722;SDS011;4900;49.306;8.500;2022-11-15T13:04:44;3.33;;;2.97;;
9722;SDS011;4900;49.306;8.500;2022-11-15T13:07:57;3.45;;;3.00;;
9722;SDS011;4900;49.306;8.500;2022-11-15T13:11:41;3.17;;;2.78;;
9722;SDS011;4900;49.306;8.500;2022-11-15T13:14:50;3.67;;;2.67;;
9722;SDS011;4900;49.306;8.500;2022-11-15T13:17:57;3.63;;;2.72;;
9722;SDS011;4900;49.306;8.500;2022-11-15T13:21:22;3.70;;;2.80;;
9722;SDS011;4900;49.306;8.500;2022-11-15T13:24:45;4.07;;;3.10;;
9722;SDS011;4900;49.306;8.500;2022-11-15T13:27:48;3.47;;;3.17;;
9722;SDS011;4900;49.306;8.500;2022-11-15T13:30:53;4.75;;;3.38;;
9722;SDS011;4900;49.306;8.500;2022-11-15T13:34:00;3.80;;;2.92;;
9722;SDS011;4900;49.306;8.500;2022-11-15T13:37:09;3.35;;;2.70;;
9722;SDS011;4900;49.306;8.500;2022-11-15T13:40:28;4.20;;;2.92;;
9722;SDS011;4900;49.306;8.500;2022-11-15T13:43:36;4.10;;;3.03;;
9722;SDS011;4900;49.306;8.500;2022-11-15T13:46:39;4.22;;;2.80;;
9722;SDS011;4900;49.306;8.500;2022-11-15T13:49:42;3.58;;;3.00;;
9722;SDS011;4900;49.306;8.500;2022-11-15T13:52:45;4.55;;;2.88;;
9722;SDS011;4900;49.306;8.500;2022-11-15T13:55:51;4.55;;;3.25;;
9722;SDS011;4900;49.306;8.500;2022-11-15T13:58:57;5.65;;;3.50;;
9722;SDS011;4900;49.306;8.500;2022-11-15T14:02:11;4.13;;;3.30;;
9722;SDS011;4900;49.306;8.500;2022-11-15T14:05:18;5.60;;;4.60;;
9722;SDS011;4900;49.306;8.500;2022-11-15T14:08:23;6.13;;;4.32;;
9722;SDS011;4900;49.306;8.500;2022-11-15T14:11:27;5.63;;;4.00;;
9722;SDS011;4900;49.306;8.500;2022-11-15T14:14:30;4.50;;;3.92;;
9722;SDS011;4900;49.306;8.500;2022-11-15T14:17:35;4.80;;;4.30;;
9722;SDS011;4900;49.306;8.500;2022-11-15T14:20:38;6.10;;;4.68;;
9722;SDS011;4900;49.306;8.500;2022-11-15T14:23:42;8.73;;;4.68;;
9722;SDS011;4900;49.306;8.500;2022-11-15T14:26:46;5.57;;;4.15;;
9722;SDS011;4900;49.306;8.500;2022-11-15T14:29:49;6.90;;;4.40;;
9722;SDS011;4900;49.306;8.500;2022-11-15T14:32:52;6.32;;;4.38;;
9722;SDS011;4900;49.306;8.500;2022-11-15T14:35:57;6.05;;;4.35;;
9722;SDS011;4900;49.306;8.500;2022-11-15T14:39:01;6.43;;;4.70;;
9722;SDS011;4900;49.306;8.500;2022-11-15T14:42:08;5.13;;;4.30;;
9722;SDS011;4900;49.306;8.500;2022-11-15T14:45:13;6.70;;;4.40;;
9722;SDS011;4900;49.306;8.500;2022-11-15T14:48:21;5.50;;;4.57;;
9722;SDS011;4900;49.306;8.500;2022-11-15T14:51:25;6.85;;;4.88;;
9722;SDS011;4900;49.306;8.500;2022-11-15T14:54:28;7.32;;;4.72;;
9722;SDS011;4900;49.306;8.500;2022-11-15T14:57:31;7.72;;;4.70;;
9722;SDS011;4900;49.306;8.500;2022-11-15T15:00:38;5.88;;;4.63;;
9722;SDS011;4900;49.306;8.500;2022-11-15T15:03:42;5.03;;;4.50;;
9722;SDS011;4900;49.306;8.500;2022-11-15T15:06:46;5.88;;;4.50;;
9722;SDS011;4900;49.306;8.500;2022-11-15T15:09:49;6.65;;;4.35;;
9722;SDS011;4900;49.306;8.500;2022-11-15T15:12:52;5.75;;;4.63;;
9722;SDS011;4900;49.306;8.500;2022-11-15T15:15:55;6.57;;;4.70;;
9722;SDS011;4900;49.306;8.500;2022-11-15T15:18:58;5.38;;;4.78;;
9722;SDS011;4900;49.306;8.500;2022-11-15T15:22:01;6.50;;;4.45;;
9722;SDS011;4900;49.306;8.500;2022-11-15T15:25:10;5.75;;;4.55;;
9722;SDS011;4900;49.306;8.500;2022-11-15T15:28:37;5.80;;;4.28;;
9722;SDS011;4900;49.306;8.500;2022-11-15T15:31:41;4.78;;;4.28;;
9722;SDS011;4900;49.306;8.500;2022-11-15T15:34:44;5.13;;;4.10;;
9722;SDS011;4900;49.306;8.500;2022-11-15T15:37:48;6.53;;;4.47;;
9722;SDS011;4900;49.306;8.500;2022-11-15T15:40:55;6.70;;;4.22;;
9722;SDS011;4900;49.306;8.500;2022-11-15T15:43:57;9.70;;;5.85;;
9722;SDS011;4900;49.306;8.500;2022-11-15T15:47:00;11.40;;;6.72;;
9722;SDS011;4900;49.306;8.500;2022-11-15T15:50:37;7.20;;;5.22;;
9722;SDS011;4900;49.306;8.500;2022-11-15T15:53:37;8.82;;;5.55;;
9722;SDS011;4900;49.306;8.500;2022-11-15T15:56:41;6.32;;;5.13;;
9722;SDS011;4900;49.306;8.500;2022-11-15T15:59:44;7.20;;;5.20;;
9722;SDS011;4900;49.306;8.500;2022-11-15T16:02:47;7.22;;;5.05;;
9722;SDS011;4900;49.306;8.500;2022-11-15T16:05:50;6.90;;;4.80;;
9722;SDS011;4900;49.306;8.500;2022-11-15T16:08:53;10.48;;;5.40;;
9722;SDS011;4900;49.306;8.500;2022-11-15T16:11:56;7.93;;;6.05;;
9722;SDS011;4900;49.306;8.500;2022-11-15T16:15:00;10.85;;;8.18;;
9722;SDS011;4900;49.306;8.500;2022-11-15T16:18:04;11.63;;;9.10;;
9722;SDS011;4900;49.306;8.500;2022-11-15T16:21:07;9.15;;;6.53;;
9722;SDS011;4900;49.306;8.500;2022-11-15T16:24:11;7.22;;;5.78;;
9722;SDS011;4900;49.306;8.500;2022-11-15T16:27:18;8.13;;;5.57;;
9722;SDS011;4900;49.306;8.500;2022-11-15T16:30:23;8.38;;;5.18;;
9722;SDS011;4900;49.306;8.500;2022-11-15T16:33:25;11.13;;;7.80;;
9722;SDS011;4900;49.306;8.500;2022-11-15T16:36:30;10.02;;;5.97;;
9722;SDS011;4900;49.306;8.500;2022-11-15T16:39:34;9.93;;;6.65;;
9722;SDS011;4900;49.306;8.500;2022-11-15T16:42:37;6.60;;;5.40;;
9722;SDS011;4900;49.306;8.500;2022-11-15T16:45:40;9.45;;;6.85;;
9722;SDS011;4900;49.306;8.500;2022-11-15T16:48:43;9.40;;;6.70;;
9722;SDS011;4900;49.306;8.500;2022-11-15T16:51:47;9.90;;;8.52;;
9722;SDS011;4900;49.306;8.500;2022-11-15T16:54:52;11.18;;;7.45;;
9722;SDS011;4900;49.306;8.500;2022-11-15T16:57:55;9.27;;;6.53;;
9722;SDS011;4900;49.306;8.500;2022-11-15T17:01:01;9.82;;;6.50;;
9722;SDS011;4900;49.306;8.500;2022-11-15T17:04:04;11.52;;;6.63;;
9722;SDS011;4900;49.306;8.500;2022-11-15T17:07:17;10.48;;;6.35;;
9722;SDS011;4900;49.306;8.500;2022-11-15T17:10:21;11.87;;;8.13;;
9722;SDS011;4900;49.306;8.500;2022-11-15T17:13:25;10.27;;;7.40;;
9722;SDS011;4900;49.306;8.500;2022-11-15T17:16:28;11.80;;;9.00;;
9722;SDS011;4900;49.306;8.500;2022-11-15T17:19:31;16.90;;;12.03;;
9722;SDS011;4900;49.306;8.500;2022-11-15T17:22:35;15.53;;;11.93;;
9722;SDS011;4900;49.306;8.500;2022-11-15T17:25:39;12.67;;;9.97;;
9722;SDS011;4900;49.306;8.500;2022-11-15T17:28:41;13.10;;;8.38;;
9722;SDS011;4900;49.306;8.500;2022-11-15T17:31:44;13.13;;;8.33;;
9722;SDS011;4900;49.306;8.500;2022-11-15T17:34:47;16.30;;;10.98;;
9722;SDS011;4900;49.306;8.500;2022-11-15T17:37:50;13.80;;;10.00;;
9722;SDS011;4900;49.306;8.500;2022-11-15T17:41:00;12.87;;;9.23;;
9722;SDS011;4900;49.306;8.500;2022-11-15T17:44:08;10.82;;;7.88;;
9722;SDS011;4900;49.306;8.500;2022-11-15T17:47:11;9.27;;;7.57;;
9722;SDS011;4900;49.306;8.500;2022-11-15T17:50:14;9.60;;;6.33;;
9722;SDS011;4900;49.306;8.500;2022-11-15T17:53:19;9.57;;;7.17;;
9722;SDS011;4900;49.306;8.500;2022-11-15T17:56:23;10.85;;;6.50;;
9722;SDS011;4900;49.306;8.500;2022-11-15T17:59:28;13.73;;;8.77;;
9722;SDS011;4900;49.306;8.500;2022-11-15T18:02:31;15.97;;;11.77;;
9722;SDS011;4900;49.306;8.500;2022-11-15T18:05:34;17.92;;;15.32;;
9722;SDS011;4900;49.306;8.500;2022-11-15T18:08:38;16.00;;;13.20;;
9722;SDS011;4900;49.306;8.500;2022-11-15T18:11:42;18.30;;;12.60;;
9722;SDS011;4900;49.306;8.500;2022-11-15T18:14:47;12.73;;;9.40;;
9722;SDS011;4900;49.306;8.500;2022-11-15T18:17:49;18.87;;;13.10;;
9722;SDS011;4900;49.306;8.500;2022-11-15T18:20:58;10.50;;;8.77;;
9722;SDS011;4900;49.306;8.500;2022-11-15T18:24:02;9.40;;;7.47;;
9722;SDS011;4900;49.306;8.500;2022-11-15T18:27:06;10.53;;;8.07;;
9722;SDS011;4900;49.306;8.500;2022-11-15T18:30:09;10.60;;;8.40;;
9722;SDS011;4900;49.306;8.500;2022-11-15T18:33:12;14.17;;;10.57;;
9722;SDS011;4900;49.306;8.500;2022-11-15T18:36:19;12.68;;;10.50;;
9722;SDS011;4900;49.306;8.500;2022-11-15T18:39:26;11.00;;;8.30;;
9722;SDS011;4900;49.306;8.500;2022-11-15T18:42:29;12.50;;;9.20;;
9722;SDS011;4900;49.306;8.500;2022-11-15T18:45:34;9.50;;;7.70;;
9722;SDS011;4900;49.306;8.500;2022-11-15T18:48:38;10.63;;;6.80;;
9722;SDS011;4900;49.306;8.500;2022-11-15T18:51:42;8.43;;;6.27;;
9722;SDS011;4900;49.306;8.500;2022-11-15T18:54:45;11.60;;;8.60;;
9722;SDS011;4900;49.306;8.500;2022-11-15T18:57:48;14.63;;;10.23;;
9722;SDS011;4900;49.306;8.500;2022-11-15T19:00:51;11.40;;;9.40;;
9722;SDS011;4900;49.306;8.500;2022-11-15T19:03:54;20.52;;;15.02;;
9722;SDS011;4900;49.306;8.500;2022-11-15T19:06:59;19.23;;;14.63;;
9722;SDS011;4900;49.306;8.500;2022-11-15T19:10:02;13.23;;;10.10;;
9722;SDS011;4900;49.306;8.500;2022-11-15T19:13:06;15.33;;;12.50;;
9722;SDS011;4900;49.306;8.500;2022-11-15T19:16:09;13.63;;;10.53;;
9722;SDS011;4900;49.306;8.500;2022-11-15T19:19:15;31.93;;;25.70;;
9722;SDS011;4900;49.306;8.500;2022-11-15T19:22:19;28.87;;;21.10;;
9722;SDS011;4900;49.306;8.500;2022-11-15T19:25:22;25.77;;;20.90;;
9722;SDS011;4900;49.306;8.500;2022-11-15T19:28:30;21.93;;;16.87;;
9722;SDS011;4900;49.306;8.500;2022-11-15T19:31:33;19.70;;;16.57;;
9722;SDS011;4900;49.306;8.500;2022-11-15T19:34:36;14.10;;;12.40;;
9722;SDS011;4900;49.306;8.500;2022-11-15T19:37:43;20.90;;;18.30;;
9722;SDS011;4900;49.306;8.500;2022-11-15T19:40:45;17.23;;;14.13;;
9722;SDS011;4900;49.306;8.500;2022-11-15T19:43:49;14.67;;;11.13;;
9722;SDS011;4900;49.306;8.500;2022-11-15T19:46:52;14.90;;;11.13;;
9722;SDS011;4900;49.306;8.500;2022-11-15T19:49:55;16.00;;;11.07;;
9722;SDS011;4900;49.306;8.500;2022-11-15T19:52:58;17.03;;;12.90;;
9722;SDS011;4900;49.306;8.500;2022-11-15T19:56:02;13.67;;;11.10;;
9722;SDS011;4900;49.306;8.500;2022-11-15T19:59:07;13.90;;;11.40;;
9722;SDS011;4900;49.306;8.500;2022-11-15T20:02:10;13.43;;;9.93;;
9722;SDS011;4900;49.306;8.500;2022-11-15T20:05:14;12.43;;;9.63;;
9722;SDS011;4900;49.306;8.500;2022-11-15T20:08:17;11.20;;;8.87;;
9722;SDS011;4900;49.306;8.500;2022-11-15T20:11:20;8.23;;;7.30;;
9722;SDS011;4900;49.306;8.500;2022-11-15T20:14:23;10.20;;;8.40;;
9722;SDS011;4900;49.306;8.500;2022-11-15T20:17:26;12.93;;;9.20;;
9722;SDS011;4900;49.306;8.500;2022-11-15T20:20:29;12.77;;;8.93;;
9722;SDS011;4900;49.306;8.500;2022-11-15T20:23:32;10.97;;;9.07;;
9722;SDS011;4900;49.306;8.500;2022-11-15T20:26:35;10.53;;;8.10;;
9722;SDS011;4900;49.306;8.500;2022-11-15T20:29:38;9.77;;;8.17;;
9722;SDS011;4900;49.306;8.500;2022-11-15T20:32:42;10.67;;;7.50;;
9722;SDS011;4900;49.306;8.500;2022-11-15T20:35:45;11.10;;;7.50;;
9722;SDS011;4900;49.306;8.500;2022-11-15T20:38:48;8.60;;;7.17;;